createdAt,value
2018-06-20T00:00:13.504Z,82.76
2018-06-20T00:01:13.525Z,82.96
2018-06-20T00:02:13.544Z,83.34
2018-06-20T00:03:13.561Z,82.76
2018-06-20T00:04:13.631Z,82.28
2018-06-20T00:05:13.604Z,82.67
2018-06-20T00:06:13.615Z,82.86
2018-06-20T00:07:13.637Z,82.67
2018-06-20T00:08:13.651Z,82.90
2018-06-20T00:09:13.673Z,82.18
2018-06-20T00:10:13.749Z,82.67
2018-06-20T00:11:13.713Z,82.48
2018-06-20T00:12:13.733Z,82.28
2018-06-20T00:13:13.750Z,82.86
2018-06-20T00:14:13.773Z,83.05
2018-06-20T00:15:13.789Z,82.86
2018-06-20T00:16:13.810Z,82.57
2018-06-20T00:17:13.830Z,82.86
2018-06-20T00:18:13.846Z,82.86
2018-06-20T00:19:13.871Z,83.34
2018-06-20T00:20:13.887Z,82.67
2018-06-20T00:21:13.908Z,82.76
2018-06-20T00:22:13.934Z,82.76
2018-06-20T00:23:13.948Z,82.38
2018-06-20T00:24:13.963Z,82.38
2018-06-20T00:25:13.982Z,82.67
2018-06-20T00:26:14.003Z,81.84
2018-06-20T00:27:14.020Z,82.13
2018-06-20T00:28:14.087Z,81.55
2018-06-20T00:29:14.061Z,81.93
2018-06-20T00:30:14.081Z,82.03
2018-06-20T00:31:14.100Z,82.03
2018-06-20T00:32:14.115Z,82.38
2018-06-20T00:33:14.136Z,82.18
2018-06-20T00:34:14.210Z,82.38
2018-06-20T00:35:14.260Z,82.67
2018-06-20T00:36:14.196Z,82.86
2018-06-20T00:37:14.211Z,83.34
2018-06-20T00:38:14.235Z,83.34
2018-06-20T00:39:14.247Z,83.83
2018-06-20T00:40:14.273Z,83.53
2018-06-20T00:41:14.339Z,83.44
2018-06-20T00:42:14.313Z,84.01
2018-06-20T00:43:14.332Z,82.48
2018-06-20T00:44:14.350Z,82.38
2018-06-20T00:45:14.370Z,82.76
2018-06-20T00:46:14.435Z,82.67
2018-06-20T00:47:14.444Z,82.76
2018-06-20T00:48:14.422Z,81.99
2018-06-20T00:49:14.441Z,82.28
2018-06-20T00:50:14.464Z,81.60
2018-06-20T00:51:14.483Z,81.26
2018-06-20T00:52:14.506Z,80.97
2018-06-20T00:53:14.598Z,81.32
2018-06-20T00:54:14.541Z,81.51
2018-06-20T00:55:14.562Z,80.97
2018-06-20T00:56:14.580Z,81.70
2018-06-20T00:57:14.596Z,82.09
2018-06-20T00:58:14.669Z,82.38
2018-06-20T00:59:14.639Z,81.70
2018-06-20T01:00:14.652Z,82.18
2018-06-20T01:01:14.678Z,82.28
2018-06-20T01:02:14.692Z,82.18
2018-06-20T01:03:14.710Z,82.28
2018-06-20T01:04:14.740Z,82.09
2018-06-20T01:05:14.748Z,83.05
2018-06-20T01:06:14.772Z,82.09
2018-06-20T01:07:14.788Z,82.28
2018-06-20T01:08:14.806Z,82.38
2018-06-20T01:09:14.826Z,81.99
2018-06-20T01:10:14.848Z,82.86
2018-06-20T01:11:14.863Z,83.34
2018-06-20T01:12:14.882Z,83.05
2018-06-20T01:13:14.909Z,83.34
2018-06-20T01:14:14.925Z,83.53
2018-06-20T01:15:14.947Z,82.86
2018-06-20T01:16:15.019Z,82.57
2018-06-20T01:17:14.981Z,82.76
2018-06-20T01:18:15.083Z,82.96
2018-06-20T01:19:15.022Z,82.28
2018-06-20T01:20:15.042Z,83.05
2018-06-20T01:21:15.062Z,82.86
2018-06-20T01:22:15.126Z,82.67
2018-06-20T01:23:15.099Z,82.76
2018-06-20T01:24:15.139Z,82.76
2018-06-20T01:25:15.137Z,82.67
2018-06-20T01:26:15.154Z,83.34
2018-06-20T01:27:15.178Z,82.82
2018-06-20T01:28:15.262Z,83.34
2018-06-20T01:29:15.212Z,83.05
2018-06-20T01:30:15.308Z,82.28
2018-06-20T01:31:15.347Z,82.67
2018-06-20T01:32:15.266Z,82.76
2018-06-20T01:33:15.289Z,82.86
2018-06-20T01:34:15.363Z,83.05
2018-06-20T01:35:15.330Z,83.25
2018-06-20T01:36:15.347Z,83.20
2018-06-20T01:37:15.378Z,82.86
2018-06-20T01:38:15.390Z,82.57
2018-06-20T01:39:15.401Z,82.57
2018-06-20T01:40:15.475Z,82.48
2018-06-20T01:41:15.444Z,82.48
2018-06-20T01:42:15.540Z,82.62
2018-06-20T01:43:15.487Z,81.95
2018-06-20T01:44:15.513Z,82.82
2018-06-20T01:45:15.527Z,83.30
2018-06-20T01:46:15.588Z,83.11
2018-06-20T01:47:15.555Z,83.11
2018-06-20T01:48:15.648Z,82.62
2018-06-20T01:49:15.646Z,83.20
2018-06-20T01:50:15.612Z,83.05
2018-06-20T01:51:15.638Z,82.48
2018-06-20T01:52:15.701Z,82.48
2018-06-20T01:53:15.680Z,82.28
2018-06-20T01:54:15.694Z,82.18
2018-06-20T01:55:15.709Z,82.38
2018-06-20T01:56:15.734Z,82.28
2018-06-20T01:57:15.752Z,81.60
2018-06-20T01:58:15.774Z,82.09
2018-06-20T01:59:15.788Z,81.99
2018-06-20T02:00:15.805Z,83.25
2018-06-20T02:01:15.889Z,83.05
2018-06-20T02:02:15.843Z,83.44
2018-06-20T02:03:15.870Z,83.53
2018-06-20T02:04:15.948Z,83.25
2018-06-20T02:05:15.903Z,83.15
2018-06-20T02:06:15.922Z,83.05
2018-06-20T02:07:15.946Z,83.34
2018-06-20T02:08:15.964Z,82.86
2018-06-20T02:09:15.984Z,83.34
2018-06-20T02:10:16.001Z,83.15
2018-06-20T02:11:16.016Z,82.76
2018-06-20T02:12:16.048Z,82.86
2018-06-20T02:13:16.056Z,82.86
2018-06-20T02:14:16.082Z,82.86
2018-06-20T02:15:16.099Z,82.86
2018-06-20T02:16:16.169Z,82.18
2018-06-20T02:17:16.153Z,82.09
2018-06-20T02:18:16.156Z,82.28
2018-06-20T02:19:16.174Z,82.48
2018-06-20T02:20:16.236Z,82.76
2018-06-20T02:21:16.208Z,81.99
2018-06-20T02:22:16.282Z,81.99
2018-06-20T02:23:16.245Z,82.57
2018-06-20T02:24:16.268Z,81.99
2018-06-20T02:25:16.289Z,82.28
2018-06-20T02:26:16.302Z,82.48
2018-06-20T02:27:16.324Z,82.28
2018-06-20T02:28:16.398Z,82.18
2018-06-20T02:29:16.360Z,82.42
2018-06-20T02:30:16.384Z,82.38
2018-06-20T02:31:16.399Z,82.09
2018-06-20T02:32:16.420Z,82.76
2018-06-20T02:33:16.439Z,83.20
2018-06-20T02:34:16.512Z,83.44
2018-06-20T02:35:16.480Z,83.05
2018-06-20T02:36:16.497Z,82.76
2018-06-20T02:37:16.513Z,82.48
2018-06-20T02:38:16.540Z,82.76
2018-06-20T02:39:16.623Z,82.76
2018-06-20T02:40:16.626Z,82.38
2018-06-20T02:41:16.596Z,83.30
2018-06-20T02:42:16.616Z,82.62
2018-06-20T02:43:16.634Z,82.92
2018-06-20T02:44:16.648Z,82.62
2018-06-20T02:45:16.717Z,82.28
2018-06-20T02:46:16.743Z,81.70
2018-06-20T02:47:16.728Z,81.70
2018-06-20T02:48:16.729Z,81.99
2018-06-20T02:49:16.747Z,81.51
2018-06-20T02:50:16.768Z,81.80
2018-06-20T02:51:16.791Z,82.48
2018-06-20T02:52:16.808Z,81.99
2018-06-20T02:53:16.827Z,81.99
2018-06-20T02:54:16.844Z,81.51
2018-06-20T02:55:16.869Z,81.90
2018-06-20T02:56:16.881Z,81.90
2018-06-20T02:57:16.934Z,81.80
2018-06-20T02:58:16.917Z,81.80
2018-06-20T02:59:16.937Z,81.80
2018-06-20T03:00:16.960Z,81.90
2018-06-20T03:01:16.976Z,81.51
2018-06-20T03:02:16.999Z,81.80
2018-06-20T03:03:17.020Z,81.51
2018-06-20T03:04:17.081Z,81.51
2018-06-20T03:05:17.063Z,81.41
2018-06-20T03:06:17.076Z,81.32
2018-06-20T03:07:17.095Z,81.90
2018-06-20T03:08:17.108Z,81.70
2018-06-20T03:09:17.135Z,82.43
2018-06-20T03:10:17.147Z,82.18
2018-06-20T03:11:17.171Z,82.24
2018-06-20T03:12:17.187Z,82.09
2018-06-20T03:13:17.205Z,82.24
2018-06-20T03:14:17.227Z,82.53
2018-06-20T03:15:17.251Z,82.53
2018-06-20T03:16:17.303Z,82.24
2018-06-20T03:17:17.278Z,82.43
2018-06-20T03:18:17.297Z,82.34
2018-06-20T03:19:17.325Z,82.82
2018-06-20T03:20:17.339Z,82.43
2018-06-20T03:21:17.363Z,82.62
2018-06-20T03:22:17.448Z,82.82
2018-06-20T03:23:17.394Z,82.43
2018-06-20T03:24:17.419Z,82.62
2018-06-20T03:25:17.439Z,82.24
2018-06-20T03:26:17.457Z,81.95
2018-06-20T03:27:17.541Z,81.95
2018-06-20T03:28:17.544Z,82.24
2018-06-20T03:29:17.510Z,82.72
2018-06-20T03:30:17.546Z,82.05
2018-06-20T03:31:17.547Z,82.34
2018-06-20T03:32:17.568Z,82.38
2018-06-20T03:33:17.584Z,82.24
2018-06-20T03:34:17.610Z,81.85
2018-06-20T03:35:17.625Z,82.24
2018-06-20T03:36:17.648Z,81.57
2018-06-20T03:37:17.659Z,82.34
2018-06-20T03:38:17.693Z,81.47
2018-06-20T03:39:17.702Z,81.60
2018-06-20T03:40:17.716Z,81.12
2018-06-20T03:41:17.807Z,81.12
2018-06-20T03:42:17.754Z,81.32
2018-06-20T03:43:17.784Z,81.60
2018-06-20T03:44:17.795Z,81.41
2018-06-20T03:45:17.819Z,80.83
2018-06-20T03:46:17.883Z,81.12
2018-06-20T03:47:17.908Z,81.32
2018-06-20T03:48:17.871Z,80.74
2018-06-20T03:49:17.891Z,81.22
2018-06-20T03:50:17.912Z,81.60
2018-06-20T03:51:17.929Z,81.57
2018-06-20T03:52:18.004Z,81.95
2018-06-20T03:53:18.058Z,82.24
2018-06-20T03:54:17.989Z,82.05
2018-06-20T03:55:18.007Z,82.62
2018-06-20T03:56:18.023Z,82.82
2018-06-20T03:57:18.040Z,82.14
2018-06-20T03:58:18.118Z,82.14
2018-06-20T03:59:18.106Z,81.85
2018-06-20T04:00:18.104Z,81.95
2018-06-20T04:01:18.116Z,81.76
2018-06-20T04:02:18.201Z,82.68
2018-06-20T04:03:18.160Z,82.59
2018-06-20T04:04:18.175Z,83.16
2018-06-20T04:05:18.197Z,83.16
2018-06-20T04:06:18.215Z,82.97
2018-06-20T04:07:18.238Z,83.45
2018-06-20T04:08:18.249Z,83.84
2018-06-20T04:09:18.273Z,83.74
2018-06-20T04:10:18.341Z,84.22
2018-06-20T04:11:18.311Z,83.94
2018-06-20T04:12:18.346Z,84.03
2018-06-20T04:13:18.350Z,83.84
2018-06-20T04:14:18.369Z,82.97
2018-06-20T04:15:18.394Z,84.03
2018-06-20T04:16:18.406Z,84.03
2018-06-20T04:17:18.423Z,83.94
2018-06-20T04:18:18.506Z,83.26
2018-06-20T04:19:18.462Z,83.26
2018-06-20T04:20:18.483Z,83.94
2018-06-20T04:21:18.508Z,84.03
2018-06-20T04:22:18.515Z,84.32
2018-06-20T04:23:18.534Z,84.22
2018-06-20T04:24:18.597Z,84.03
2018-06-20T04:25:18.668Z,83.26
2018-06-20T04:26:18.592Z,83.64
2018-06-20T04:27:18.614Z,84.32
2018-06-20T04:28:18.678Z,84.42
2018-06-20T04:29:18.647Z,84.42
2018-06-20T04:30:18.667Z,84.22
2018-06-20T04:31:18.690Z,85.19
2018-06-20T04:32:18.710Z,85.19
2018-06-20T04:33:18.724Z,84.90
2018-06-20T04:34:18.793Z,85.77
2018-06-20T04:35:18.764Z,85.67
2018-06-20T04:36:18.786Z,86.01
2018-06-20T04:37:18.802Z,86.11
2018-06-20T04:38:18.819Z,86.21
2018-06-20T04:39:18.839Z,86.74
2018-06-20T04:40:18.911Z,87.12
2018-06-20T04:41:18.872Z,87.65
2018-06-20T04:42:18.892Z,87.70
2018-06-20T04:43:18.910Z,87.65
2018-06-20T04:44:18.933Z,87.07
2018-06-20T04:45:18.949Z,87.17
2018-06-20T04:46:19.019Z,86.11
2018-06-20T04:47:18.988Z,85.63
2018-06-20T04:48:19.004Z,86.21
2018-06-20T04:49:19.024Z,86.01
2018-06-20T04:50:19.044Z,86.69
2018-06-20T04:51:19.061Z,87.17
2018-06-20T04:52:19.084Z,86.98
2018-06-20T04:53:19.097Z,86.78
2018-06-20T04:54:19.120Z,86.78
2018-06-20T04:55:19.184Z,87.46
2018-06-20T04:56:19.153Z,87.17
2018-06-20T04:57:19.176Z,87.36
2018-06-20T04:58:19.257Z,86.59
2018-06-20T04:59:19.209Z,86.49
2018-06-20T05:00:19.228Z,87.07
2018-06-20T05:01:19.322Z,86.69
2018-06-20T05:02:19.270Z,86.69
2018-06-20T05:03:19.291Z,86.59
2018-06-20T05:04:19.382Z,86.78
2018-06-20T05:05:19.321Z,86.69
2018-06-20T05:06:19.348Z,85.34
2018-06-20T05:07:19.449Z,86.25
2018-06-20T05:08:19.377Z,86.30
2018-06-20T05:09:19.408Z,86.01
2018-06-20T05:10:19.475Z,86.01
2018-06-20T05:11:19.438Z,86.88
2018-06-20T05:12:19.456Z,86.78
2018-06-20T05:13:19.530Z,86.78
2018-06-20T05:14:19.497Z,86.44
2018-06-20T05:15:19.512Z,85.82
2018-06-20T05:16:19.577Z,84.95
2018-06-20T05:17:19.546Z,85.05
2018-06-20T05:18:19.569Z,85.77
2018-06-20T05:19:19.674Z,86.59
2018-06-20T05:20:19.609Z,86.59
2018-06-20T05:21:19.620Z,87.36
2018-06-20T05:22:19.693Z,86.98
2018-06-20T05:23:19.664Z,86.88
2018-06-20T05:24:19.676Z,87.46
2018-06-20T05:25:19.737Z,86.98
2018-06-20T05:26:19.721Z,86.40
2018-06-20T05:27:19.736Z,86.98
2018-06-20T05:28:19.802Z,86.40
2018-06-20T05:29:19.773Z,86.21
2018-06-20T05:30:19.793Z,85.86
2018-06-20T05:31:19.889Z,85.77
2018-06-20T05:32:19.826Z,85.86
2018-06-20T05:33:19.852Z,86.54
2018-06-20T05:34:19.915Z,86.15
2018-06-20T05:35:19.883Z,86.05
2018-06-20T05:36:19.906Z,85.67
2018-06-20T05:37:19.923Z,85.67
2018-06-20T05:38:19.944Z,85.96
2018-06-20T05:39:19.968Z,86.35
2018-06-20T05:40:20.041Z,86.25
2018-06-20T05:41:19.998Z,86.25
2018-06-20T05:42:20.019Z,86.63
2018-06-20T05:43:20.038Z,85.57
2018-06-20T05:44:20.147Z,86.73
2018-06-20T05:45:20.078Z,86.05
2018-06-20T05:46:20.138Z,85.38
2018-06-20T05:47:20.119Z,85.57
2018-06-20T05:48:20.126Z,85.19
2018-06-20T05:49:20.144Z,85.09
2018-06-20T05:50:20.231Z,85.09
2018-06-20T05:51:20.186Z,84.90
2018-06-20T05:52:20.259Z,85.19
2018-06-20T05:53:20.227Z,84.22
2018-06-20T05:54:20.241Z,84.22
2018-06-20T05:55:20.257Z,84.22
2018-06-20T05:56:20.374Z,83.98
2018-06-20T05:57:20.299Z,84.12
2018-06-20T05:58:20.370Z,83.30
2018-06-20T05:59:20.333Z,84.12
2018-06-20T06:00:20.358Z,83.78
2018-06-20T06:01:20.377Z,83.78
2018-06-20T06:02:20.395Z,83.40
2018-06-20T06:03:20.413Z,83.30
2018-06-20T06:04:20.480Z,83.01
2018-06-20T06:05:20.449Z,84.65
2018-06-20T06:06:20.467Z,84.75
2018-06-20T06:07:20.487Z,84.17
2018-06-20T06:08:20.507Z,83.78
2018-06-20T06:09:20.597Z,83.69
2018-06-20T06:10:20.594Z,83.11
2018-06-20T06:11:20.559Z,82.82
2018-06-20T06:12:20.582Z,83.05
2018-06-20T06:13:20.599Z,83.15
2018-06-20T06:14:20.621Z,82.48
2018-06-20T06:15:20.714Z,82.67
2018-06-20T06:16:20.707Z,82.57
2018-06-20T06:17:20.681Z,83.25
2018-06-20T06:18:20.695Z,83.44
2018-06-20T06:19:20.713Z,83.44
2018-06-20T06:20:20.734Z,83.53
2018-06-20T06:21:20.771Z,83.34
2018-06-20T06:22:20.820Z,83.15
2018-06-20T06:23:20.861Z,83.25
2018-06-20T06:24:20.811Z,82.67
2018-06-20T06:25:20.826Z,82.28
2018-06-20T06:26:20.847Z,81.93
2018-06-20T06:27:20.873Z,81.35
2018-06-20T06:28:20.941Z,81.55
2018-06-20T06:29:20.902Z,81.07
2018-06-20T06:30:20.924Z,81.16
2018-06-20T06:31:20.949Z,80.49
2018-06-20T06:32:20.968Z,80.10
2018-06-20T06:33:20.997Z,80.49
2018-06-20T06:34:21.052Z,80.05
2018-06-20T06:35:21.025Z,79.17
2018-06-20T06:36:21.039Z,79.08
2018-06-20T06:37:21.064Z,78.50
2018-06-20T06:38:21.081Z,78.06
2018-06-20T06:39:21.103Z,78.15
2018-06-20T06:40:21.172Z,77.09
2018-06-20T06:41:21.133Z,76.51
2018-06-20T06:42:21.157Z,76.16
2018-06-20T06:43:21.178Z,76.16
2018-06-20T06:44:21.197Z,75.71
2018-06-20T06:45:21.213Z,74.94
2018-06-20T06:46:21.356Z,73.91
2018-06-20T06:47:21.258Z,75.56
2018-06-20T06:48:21.273Z,72.85
2018-06-20T06:49:21.300Z,73.85
2018-06-20T06:50:21.313Z,72.17
2018-06-20T06:51:21.330Z,72.21
2018-06-20T06:52:21.403Z,70.95
2018-06-20T06:53:21.374Z,70.66
2018-06-20T06:54:21.389Z,71.34
2018-06-20T06:55:21.410Z,71.44
2018-06-20T06:56:21.428Z,72.02
2018-06-20T06:57:21.452Z,71.34
2018-06-20T06:58:21.520Z,71.62
2018-06-20T06:59:21.492Z,71.08
2018-06-20T07:00:21.511Z,70.21
2018-06-20T07:01:21.530Z,70.21
2018-06-20T07:02:21.555Z,69.92
2018-06-20T07:03:21.573Z,69.15
2018-06-20T07:04:21.645Z,68.60
2018-06-20T07:05:21.615Z,68.12
2018-06-20T07:06:21.639Z,68.54
2018-06-20T07:07:21.649Z,68.05
2018-06-20T07:08:21.670Z,66.79
2018-06-20T07:09:21.740Z,66.69
2018-06-20T07:10:21.769Z,66.82
2018-06-20T07:11:21.766Z,66.53
2018-06-20T07:12:21.756Z,66.60
2018-06-20T07:13:21.772Z,66.69
2018-06-20T07:14:21.798Z,67.08
2018-06-20T07:15:21.821Z,66.89
2018-06-20T07:16:21.887Z,66.89
2018-06-20T07:17:21.863Z,66.79
2018-06-20T07:18:21.883Z,67.66
2018-06-20T07:19:21.898Z,66.34
2018-06-20T07:20:21.928Z,66.05
2018-06-20T07:21:21.944Z,65.56
2018-06-20T07:22:22.015Z,65.85
2018-06-20T07:23:21.982Z,65.66
2018-06-20T07:24:22.036Z,64.88
2018-06-20T07:25:22.025Z,64.78
2018-06-20T07:26:22.046Z,64.33
2018-06-20T07:27:22.074Z,63.39
2018-06-20T07:28:22.145Z,63.32
2018-06-20T07:29:22.161Z,62.55
2018-06-20T07:30:22.134Z,62.84
2018-06-20T07:31:22.155Z,62.87
2018-06-20T07:32:22.181Z,62.48
2018-06-20T07:33:22.209Z,60.83
2018-06-20T07:34:22.321Z,61.19
2018-06-20T07:35:22.285Z,61.58
2018-06-20T07:36:22.266Z,61.22
2018-06-20T07:37:22.283Z,61.02
2018-06-20T07:38:22.302Z,61.22
2018-06-20T07:39:22.327Z,59.89
2018-06-20T07:40:22.393Z,60.57
2018-06-20T07:41:22.406Z,60.77
2018-06-20T07:42:22.393Z,60.77
2018-06-20T07:43:22.409Z,60.21
2018-06-20T07:44:22.436Z,59.72
2018-06-20T07:45:22.452Z,59.14
2018-06-20T07:46:22.526Z,58.95
2018-06-20T07:47:22.501Z,59.63
2018-06-20T07:48:22.522Z,59.95
2018-06-20T07:49:22.545Z,58.97
2018-06-20T07:50:22.563Z,58.59
2018-06-20T07:51:22.585Z,57.90
2018-06-20T07:52:22.658Z,57.42
2018-06-20T07:53:22.636Z,57.03
2018-06-20T07:54:22.678Z,56.76
2018-06-20T07:55:22.837Z,56.30
2018-06-20T07:56:22.699Z,56.21
2018-06-20T07:57:22.724Z,57.06
2018-06-20T07:58:22.799Z,56.93
2018-06-20T07:59:22.772Z,56.57
2018-06-20T08:00:22.788Z,57.61
2018-06-20T08:01:22.813Z,57.90
2018-06-20T08:02:22.832Z,57.74
2018-06-20T08:03:22.906Z,56.57
2018-06-20T08:04:22.881Z,55.43
2018-06-20T08:05:22.900Z,54.85
2018-06-20T08:06:22.999Z,55.62
2018-06-20T08:07:22.948Z,55.13
2018-06-20T08:08:22.967Z,56.40
2018-06-20T08:09:23.049Z,55.55
2018-06-20T08:10:23.021Z,55.65
2018-06-20T08:11:23.043Z,54.90
2018-06-20T08:12:23.140Z,54.99
2018-06-20T08:13:23.084Z,54.99
2018-06-20T08:14:23.120Z,53.83
2018-06-20T08:15:23.202Z,53.05
2018-06-20T08:16:23.155Z,52.58
2018-06-20T08:17:23.179Z,52.39
2018-06-20T08:18:23.205Z,53.14
2018-06-20T08:19:23.279Z,53.24
2018-06-20T08:20:23.246Z,53.24
2018-06-20T08:21:23.324Z,53.60
2018-06-20T08:22:23.293Z,53.70
2018-06-20T08:23:23.319Z,53.89
2018-06-20T08:24:23.345Z,54.48
2018-06-20T08:25:23.420Z,53.60
2018-06-20T08:26:23.389Z,53.70
2018-06-20T08:27:23.460Z,53.41
2018-06-20T08:28:23.435Z,53.41
2018-06-20T08:29:23.459Z,53.97
2018-06-20T08:30:23.481Z,54.85
2018-06-20T08:31:23.576Z,54.58
2018-06-20T08:32:23.526Z,53.70
2018-06-20T08:33:23.601Z,53.05
2018-06-20T08:34:23.570Z,52.56
2018-06-20T08:35:23.600Z,53.89
2018-06-20T08:36:23.623Z,54.36
2018-06-20T08:37:23.642Z,54.48
2018-06-20T08:38:23.668Z,53.92
2018-06-20T08:39:23.736Z,53.53
2018-06-20T08:40:23.706Z,53.85
2018-06-20T08:41:23.734Z,52.68
2018-06-20T08:42:23.767Z,52.29
2018-06-20T08:43:23.786Z,52.51
2018-06-20T08:44:23.804Z,51.82
2018-06-20T08:45:23.882Z,52.44
2018-06-20T08:46:23.856Z,51.76
2018-06-20T08:47:23.881Z,52.02
2018-06-20T08:48:23.895Z,52.51
2018-06-20T08:49:23.924Z,52.25
2018-06-20T08:50:24.041Z,52.31
2018-06-20T08:51:24.049Z,51.66
2018-06-20T08:52:23.995Z,50.78
2018-06-20T08:53:24.019Z,51.46
2018-06-20T08:54:24.041Z,51.17
2018-06-20T08:55:24.061Z,50.39
2018-06-20T08:56:24.092Z,50.32
2018-06-20T08:57:24.112Z,50.71
2018-06-20T08:58:24.137Z,50.90
2018-06-20T08:59:24.162Z,50.90
2018-06-20T09:00:24.181Z,51.92
2018-06-20T09:01:24.213Z,51.31
2018-06-20T09:02:24.231Z,51.04
2018-06-20T09:03:24.256Z,51.04
2018-06-20T09:04:24.286Z,49.88
2018-06-20T09:05:24.301Z,50.78
2018-06-20T09:06:24.334Z,50.59
2018-06-20T09:07:24.353Z,49.63
2018-06-20T09:08:24.373Z,48.85
2018-06-20T09:09:24.447Z,48.58
2018-06-20T09:10:24.421Z,47.99
2018-06-20T09:11:24.450Z,47.02
2018-06-20T09:12:24.468Z,46.82
2018-06-20T09:13:24.497Z,47.58
2018-06-20T09:14:24.545Z,47.77
2018-06-20T09:15:24.549Z,46.62
2018-06-20T09:16:24.573Z,48.16
2018-06-20T09:17:24.594Z,47.97
2018-06-20T09:18:24.637Z,48.85
2018-06-20T09:19:24.637Z,46.94
2018-06-20T09:20:24.715Z,45.79
2018-06-20T09:21:24.806Z,45.89
2018-06-20T09:22:24.717Z,45.69
2018-06-20T09:23:24.738Z,45.42
2018-06-20T09:24:24.762Z,44.34
2018-06-20T09:25:24.787Z,44.34
2018-06-20T09:26:24.861Z,46.13
2018-06-20T09:27:24.928Z,44.76
2018-06-20T09:28:24.865Z,44.76
2018-06-20T09:29:24.886Z,43.90
2018-06-20T09:30:24.915Z,44.76
2018-06-20T09:31:24.937Z,45.20
2018-06-20T09:32:24.965Z,46.08
2018-06-20T09:33:25.029Z,46.11
2018-06-20T09:34:25.015Z,45.32
2018-06-20T09:35:25.038Z,46.08
2018-06-20T09:36:25.103Z,46.03
2018-06-20T09:37:25.088Z,45.15
2018-06-20T09:38:25.110Z,46.03
2018-06-20T09:39:25.196Z,44.95
2018-06-20T09:40:25.159Z,45.34
2018-06-20T09:41:25.183Z,44.37
2018-06-20T09:42:25.214Z,44.48
2018-06-20T09:43:25.239Z,45.37
2018-06-20T09:44:25.259Z,44.51
2018-06-20T09:45:25.289Z,43.62
2018-06-20T09:46:25.312Z,43.23
2018-06-20T09:47:25.339Z,43.05
2018-06-20T09:48:25.370Z,43.65
2018-06-20T09:49:25.384Z,42.86
2018-06-20T09:50:25.417Z,42.58
2018-06-20T09:51:25.492Z,43.47
2018-06-20T09:52:25.464Z,43.88
2018-06-20T09:53:25.493Z,42.10
2018-06-20T09:54:25.512Z,42.19
2018-06-20T09:55:25.543Z,42.39
2018-06-20T09:56:25.569Z,42.29
2018-06-20T09:57:25.644Z,42.02
2018-06-20T09:58:25.660Z,42.51
2018-06-20T09:59:25.641Z,42.49
2018-06-20T10:00:25.672Z,42.66
2018-06-20T10:01:25.737Z,44.02
2018-06-20T10:02:25.725Z,44.82
2018-06-20T10:03:25.750Z,43.65
2018-06-20T10:04:25.850Z,42.58
2018-06-20T10:05:25.803Z,42.32
2018-06-20T10:06:25.831Z,42.37
2018-06-20T10:07:25.859Z,44.43
2018-06-20T10:08:25.873Z,44.45
2018-06-20T10:09:25.898Z,42.32
2018-06-20T10:10:26.005Z,42.21
2018-06-20T10:11:25.958Z,40.94
2018-06-20T10:12:25.977Z,41.06
2018-06-20T10:13:26.011Z,41.61
2018-06-20T10:14:26.083Z,41.72
2018-06-20T10:15:26.059Z,42.43
2018-06-20T10:16:26.095Z,39.48
2018-06-20T10:17:26.107Z,39.90
2018-06-20T10:18:26.138Z,40.17
2018-06-20T10:19:26.165Z,39.76
2018-06-20T10:20:26.223Z,41.39
2018-06-20T10:21:26.250Z,40.82
2018-06-20T10:22:26.279Z,42.05
2018-06-20T10:23:26.264Z,41.98
2018-06-20T10:24:26.290Z,42.10
2018-06-20T10:25:26.327Z,41.11
2018-06-20T10:26:26.557Z,42.51
2018-06-20T10:27:26.374Z,40.06
2018-06-20T10:28:26.513Z,39.37
2018-06-20T10:29:26.419Z,38.98
2018-06-20T10:30:26.449Z,40.16
2018-06-20T10:31:26.479Z,42.33
2018-06-20T10:32:26.501Z,43.00
2018-06-20T10:33:26.530Z,44.16
2018-06-20T10:34:26.606Z,43.18
2018-06-20T10:35:26.584Z,43.82
2018-06-20T10:36:26.607Z,43.84
2018-06-20T10:37:26.637Z,44.53
2018-06-20T10:38:26.709Z,45.47
2018-06-20T10:39:26.687Z,45.25
2018-06-20T10:40:26.735Z,46.03
2018-06-20T10:41:26.739Z,46.59
2018-06-20T10:42:26.764Z,47.53
2018-06-20T10:43:26.788Z,48.38
2018-06-20T10:44:26.810Z,48.58
2018-06-20T10:45:26.837Z,48.28
2018-06-20T10:46:26.895Z,48.19
2018-06-20T10:47:26.892Z,48.11
2018-06-20T10:48:26.916Z,47.55
2018-06-20T10:49:27.029Z,47.87
2018-06-20T10:50:26.969Z,47.20
2018-06-20T10:51:26.999Z,45.29
2018-06-20T10:52:27.031Z,44.88
2018-06-20T10:53:27.052Z,44.98
2018-06-20T10:54:27.147Z,45.13
2018-06-20T10:55:27.101Z,44.95
2018-06-20T10:56:27.123Z,45.37
2018-06-20T10:57:27.148Z,44.48
2018-06-20T10:58:27.171Z,46.17
2018-06-20T10:59:27.199Z,45.02
2018-06-20T11:00:27.223Z,43.88
2018-06-20T11:01:27.249Z,43.12
2018-06-20T11:02:27.273Z,41.27
2018-06-20T11:03:27.299Z,40.69
2018-06-20T11:04:27.421Z,40.56
2018-06-20T11:05:27.352Z,42.02
2018-06-20T11:06:27.431Z,40.86
2018-06-20T11:07:27.399Z,41.45
2018-06-20T11:08:27.426Z,41.53
2018-06-20T11:09:27.455Z,42.86
2018-06-20T11:10:27.491Z,43.31
2018-06-20T11:11:27.504Z,43.62
2018-06-20T11:12:27.583Z,43.77
2018-06-20T11:13:27.557Z,44.38
2018-06-20T11:14:27.590Z,43.99
2018-06-20T11:15:27.757Z,44.38
2018-06-20T11:16:27.696Z,43.60
2018-06-20T11:17:27.664Z,43.90
2018-06-20T11:18:27.689Z,44.09
2018-06-20T11:19:27.712Z,43.80
2018-06-20T11:20:27.741Z,43.65
2018-06-20T11:21:27.760Z,43.19
2018-06-20T11:22:27.788Z,43.02
2018-06-20T11:23:27.817Z,40.27
2018-06-20T11:24:27.896Z,41.53
2018-06-20T11:25:27.868Z,41.90
2018-06-20T11:26:27.960Z,42.96
2018-06-20T11:27:27.919Z,42.37
2018-06-20T11:28:27.948Z,42.96
2018-06-20T11:29:27.969Z,43.29
2018-06-20T11:30:27.994Z,42.11
2018-06-20T11:31:28.022Z,43.21
2018-06-20T11:32:28.049Z,43.98
2018-06-20T11:33:28.071Z,45.91
2018-06-20T11:34:28.102Z,45.59
2018-06-20T11:35:28.132Z,46.57
2018-06-20T11:36:28.204Z,46.59
2018-06-20T11:37:28.183Z,46.11
2018-06-20T11:38:28.201Z,45.25
2018-06-20T11:39:28.258Z,44.66
2018-06-20T11:40:28.255Z,43.99
2018-06-20T11:41:28.281Z,43.92
2018-06-20T11:42:28.358Z,43.23
2018-06-20T11:43:28.331Z,43.21
2018-06-20T11:44:28.355Z,44.09
2018-06-20T11:45:28.385Z,43.33
2018-06-20T11:46:28.404Z,43.15
2018-06-20T11:47:28.516Z,43.12
2018-06-20T11:48:28.509Z,43.52
2018-06-20T11:49:28.488Z,42.55
2018-06-20T11:50:28.514Z,42.76
2018-06-20T11:51:28.540Z,42.52
2018-06-20T11:52:28.559Z,44.09
2018-06-20T11:53:28.647Z,43.13
2018-06-20T11:54:28.612Z,42.10
2018-06-20T11:55:28.636Z,41.61
2018-06-20T11:56:28.661Z,41.63
2018-06-20T11:57:28.688Z,40.43
2018-06-20T11:58:28.715Z,40.92
2018-06-20T11:59:28.737Z,39.74
2018-06-20T12:00:28.813Z,39.66
2018-06-20T12:01:28.787Z,38.80
2018-06-20T12:02:28.815Z,39.62
2018-06-20T12:03:28.844Z,36.51
2018-06-20T12:04:28.867Z,34.84
2018-06-20T12:05:28.893Z,34.08
2018-06-20T12:06:28.977Z,31.63
2018-06-20T12:07:28.946Z,32.65
2018-06-20T12:08:29.006Z,31.37
2018-06-20T12:09:29.001Z,33.64
2018-06-20T12:10:29.027Z,35.46
2018-06-20T12:11:29.051Z,34.56
2018-06-20T12:12:29.075Z,36.20
2018-06-20T12:13:29.114Z,38.84
2018-06-20T12:14:29.134Z,42.65
2018-06-20T12:15:29.160Z,42.72
2018-06-20T12:16:29.212Z,44.17
2018-06-20T12:17:29.209Z,43.95
2018-06-20T12:18:29.305Z,44.91
2018-06-20T12:19:29.267Z,46.16
2018-06-20T12:20:29.295Z,46.72
2018-06-20T12:21:29.329Z,45.89
2018-06-20T12:22:29.349Z,44.91
2018-06-20T12:23:29.369Z,45.01
2018-06-20T12:24:29.396Z,44.81
2018-06-20T12:25:29.426Z,44.76
2018-06-20T12:26:29.447Z,43.60
2018-06-20T12:27:29.468Z,43.12
2018-06-20T12:28:29.499Z,42.82
2018-06-20T12:29:29.519Z,42.91
2018-06-20T12:30:29.599Z,42.74
2018-06-20T12:31:29.569Z,43.68
2018-06-20T12:32:29.600Z,45.42
2018-06-20T12:33:29.671Z,46.18
2018-06-20T12:34:29.653Z,46.33
2018-06-20T12:35:29.673Z,44.58
2018-06-20T12:36:29.783Z,44.12
2018-06-20T12:37:29.723Z,43.12
2018-06-20T12:38:29.757Z,42.13
2018-06-20T12:39:29.847Z,44.17
2018-06-20T12:40:29.801Z,45.44
2018-06-20T12:41:30.030Z,46.52
2018-06-20T12:42:29.926Z,45.05
2018-06-20T12:43:29.875Z,45.59
2018-06-20T12:44:29.900Z,43.76
2018-06-20T12:45:29.946Z,43.60
2018-06-20T12:46:29.953Z,41.47
2018-06-20T12:47:29.979Z,41.58
2018-06-20T12:48:30.008Z,41.86
2018-06-20T12:49:30.025Z,40.39
2018-06-20T12:50:30.058Z,42.55
2018-06-20T12:51:30.075Z,42.82
2018-06-20T12:52:30.167Z,41.27